EPKKEPRZ

Guest
Details From EPKK - BALICE
To EPRZ - JASIONKA
Flight Number -
Tags generated
Created
Modified
Stats Distance 87 nm / 161 km
Max Altitude 2,400 ft / 732 m
Waypoints 3
Social Downloads 0
Likes 0
Share VATSIM

Download

Looking for another format? Having issues loading an existing format? Contact us
Advertisement - Login to hide

Notes

Basic altitude profile: - Ascent Rate: 2500ft/min - Ascent Speed: 250kts - Cruise Altitude: 35000ft - Cruise Speed: 400kts - Descent Rate: 1500ft/min - Descent Speed: 250kts Options: - Use NATs: yes - Use PACOTS: yes - Use low airways: yes - Use high airways: yes

Route

EPKK VAVEL EPRZ

ID Type Via Altitude Latitude Longitude Leg Dist Tot Dist Heading (true) Name
O EPKK APT - 0 ft / 0 m 50.07782˚ 19.78550˚ - 0 nm - BALICE
VAVEL FIX - 2,400 ft / 732 m 50.06639˚ 19.96194˚ 6 nm 6 nm 96° / 96° -
O EPRZ APT - 0 ft / 0 m 50.10761˚ 22.03610˚ 79 nm 86 nm 87° / 89° JASIONKA

Altitude Profile

Advertisement - Login to hide

EPKK

Details ICAO EPKK (KRK)
Name BALICE
Region Poland
Timezone Europe/Warsaw (UTC+1.0)
Stats Elevation 791 ft / 241 m (AMSL)
Location 50.077821° 19.785503°
Runways 1
Magnetic Variation 5.201° E

METAR

EPKK 110030Z 21016KT 9999 SCT040 04/M02 Q0994

Decode

TAF

TAF EPKK 102330Z 1100/1124 22008KT CAVOK PROB30 TEMPO 1100/1115 23015G30KT BECMG 1115/1117 22015KT TEMPO 1121/1124 23020G35KT

Decode

Departure Runways

ID Width Length Bearing (true) Bearing (mag) Surface Threshold Offset Overrun Length
07 197 ft / 60 m 8,343 ft / 2,543 m 77.75° 72.55° Concrete 0 ft / 0 m 0 ft / 0 m
25 197 ft / 60 m 8,343 ft / 2,543 m 257.77° 252.57° Concrete 784 ft / 239 m 0 ft / 0 m

EPRZ

Details ICAO EPRZ (RZE)
Name JASIONKA
Region Poland
Timezone Europe/Warsaw (UTC+1.0)
Stats Elevation 675 ft / 206 m (AMSL)
Location 50.107614° 22.036096°
Runways 2
Magnetic Variation 5.723° E

METAR

EPRZ 110030Z 19023KT 9999 SCT022 01/M03 Q0997 R27/2///95

Decode

TAF

TAF EPRZ 102330Z 1100/1124 17017KT 9999 SCT035 TEMPO 1100/1124 19025G35KT PROB30 TEMPO 1100/1124 19030G45KT BKN012

Decode

Destination Runways

ID Width Length Bearing (true) Bearing (mag) Surface Threshold Offset Overrun Length
08 1,050 ft / 320 m 2,709 ft / 826 m 80.74° 75.02° Grass 0 ft / 0 m 0 ft / 0 m
09 148 ft / 45 m 10,469 ft / 3,191 m 91.16° 85.44° Concrete 0 ft / 0 m 0 ft / 0 m
26 1,050 ft / 320 m 2,709 ft / 826 m 260.74° 255.02° Grass 0 ft / 0 m 0 ft / 0 m
27 148 ft / 45 m 10,469 ft / 3,191 m 271.20° 265.48° Concrete 2,297 ft / 700 m 0 ft / 0 m

Approach Navaids

Runway Type Ident Frequency Range Bearing (true) Bearing (mag) Slope Elevation
27 Localiser RZW 110.30 MHz 18 nm / 33 km 271.15° 265.43° - 675 ft / 206 m (AMSL)
27 Glidescope RZW 110.30 MHz 10 nm / 19 km 271.18° 265.46° 2.90° 675 ft / 206 m (AMSL)
27 DME RZW 110.30 MHz 18 nm / 33 km - - - 787 ft / 240 m (AMSL)

Popular Alternatives